sensor_id;sensor_type;location;lat;lon;timestamp;pressure;altitude;pressure_sealevel;temperature;humidity
74329;BME280;62749;51.982;5.916;2023-10-13T00:00:40;100881.06;;;17.37;100.00
74329;BME280;62749;51.982;5.916;2023-10-13T00:03:12;100877.09;;;17.42;100.00
74329;BME280;62749;51.982;5.916;2023-10-13T00:05:45;100874.22;;;17.45;100.00
74329;BME280;62749;51.982;5.916;2023-10-13T00:08:16;100874.44;;;17.42;100.00
74329;BME280;62749;51.982;5.916;2023-10-13T00:10:47;100870.91;;;17.42;100.00
74329;BME280;62749;51.982;5.916;2023-10-13T00:13:16;100831.06;;;17.26;100.00
74329;BME280;62749;51.982;5.916;2023-10-13T00:15:47;100866.22;;;17.45;100.00
74329;BME280;62749;51.982;5.916;2023-10-13T00:18:27;100880.84;;;17.53;100.00
74329;BME280;62749;51.982;5.916;2023-10-13T00:20:59;100870.59;;;17.46;100.00
74329;BME280;62749;51.982;5.916;2023-10-13T00:23:38;100858.63;;;17.39;100.00
74329;BME280;62749;51.982;5.916;2023-10-13T00:26:10;100859.25;;;17.43;100.00
74329;BME280;62749;51.982;5.916;2023-10-13T00:28:44;100856.69;;;17.41;100.00
74329;BME280;62749;51.982;5.916;2023-10-13T00:31:14;100851.25;;;17.43;100.00
74329;BME280;62749;51.982;5.916;2023-10-13T00:33:47;100847.94;;;17.39;100.00
74329;BME280;62749;51.982;5.916;2023-10-13T00:36:17;100841.63;;;17.40;100.00
74329;BME280;62749;51.982;5.916;2023-10-13T00:38:47;100848.34;;;17.46;100.00
74329;BME280;62749;51.982;5.916;2023-10-13T00:41:18;100840.69;;;17.41;100.00
74329;BME280;62749;51.982;5.916;2023-10-13T00:44:08;100835.25;;;17.30;100.00
74329;BME280;62749;51.982;5.916;2023-10-13T00:46:38;100840.88;;;17.38;100.00
74329;BME280;62749;51.982;5.916;2023-10-13T00:49:13;100844.94;;;17.44;100.00
74329;BME280;62749;51.982;5.916;2023-10-13T00:51:44;100856.59;;;17.43;100.00
74329;BME280;62749;51.982;5.916;2023-10-13T00:54:14;100841.97;;;17.48;100.00
74329;BME280;62749;51.982;5.916;2023-10-13T00:56:47;100834.69;;;17.51;100.00
74329;BME280;62749;51.982;5.916;2023-10-13T00:59:16;100835.75;;;17.48;100.00
74329;BME280;62749;51.982;5.916;2023-10-13T01:01:49;100830.88;;;17.42;100.00
74329;BME280;62749;51.982;5.916;2023-10-13T01:04:24;100825.41;;;17.43;100.00
74329;BME280;62749;51.982;5.916;2023-10-13T01:06:54;100827.00;;;17.46;100.00
74329;BME280;62749;51.982;5.916;2023-10-13T01:09:23;100815.81;;;17.41;100.00
74329;BME280;62749;51.982;5.916;2023-10-13T01:11:51;100819.31;;;17.41;100.00
74329;BME280;62749;51.982;5.916;2023-10-13T01:14:22;100807.88;;;17.39;100.00
74329;BME280;62749;51.982;5.916;2023-10-13T01:16:53;100814.09;;;17.40;100.00
74329;BME280;62749;51.982;5.916;2023-10-13T01:19:27;100816.66;;;17.41;100.00
74329;BME280;62749;51.982;5.916;2023-10-13T01:21:55;100804.25;;;17.40;100.00
74329;BME280;62749;51.982;5.916;2023-10-13T01:24:31;100806.94;;;17.40;100.00
74329;BME280;62749;51.982;5.916;2023-10-13T01:27:01;100808.50;;;17.43;100.00
74329;BME280;62749;51.982;5.916;2023-10-13T01:29:43;100792.81;;;17.38;100.00
74329;BME280;62749;51.982;5.916;2023-10-13T01:32:15;100799.47;;;17.45;100.00
74329;BME280;62749;51.982;5.916;2023-10-13T01:34:44;100788.16;;;17.42;100.00
74329;BME280;62749;51.982;5.916;2023-10-13T01:37:21;100793.16;;;17.46;100.00
74329;BME280;62749;51.982;5.916;2023-10-13T01:39:53;100787.47;;;17.51;100.00
74329;BME280;62749;51.982;5.916;2023-10-13T01:42:23;100785.16;;;17.46;100.00
74329;BME280;62749;51.982;5.916;2023-10-13T01:44:54;100776.88;;;17.49;100.00
74329;BME280;62749;51.982;5.916;2023-10-13T01:47:31;100774.66;;;17.43;100.00
74329;BME280;62749;51.982;5.916;2023-10-13T01:50:03;100769.13;;;17.46;100.00
74329;BME280;62749;51.982;5.916;2023-10-13T01:52:40;100758.66;;;17.43;100.00
74329;BME280;62749;51.982;5.916;2023-10-13T01:55:13;100744.47;;;17.30;100.00
74329;BME280;62749;51.982;5.916;2023-10-13T01:57:43;100744.34;;;17.31;100.00
74329;BME280;62749;51.982;5.916;2023-10-13T02:00:15;100753.31;;;17.43;100.00
74329;BME280;62749;51.982;5.916;2023-10-13T02:02:45;100744.97;;;17.48;100.00
74329;BME280;62749;51.982;5.916;2023-10-13T02:05:16;100746.78;;;17.47;100.00
74329;BME280;62749;51.982;5.916;2023-10-13T02:07:43;100737.50;;;17.40;100.00
74329;BME280;62749;51.982;5.916;2023-10-13T02:10:16;100731.53;;;17.37;100.00
74329;BME280;62749;51.982;5.916;2023-10-13T02:12:42;100742.63;;;17.43;100.00
74329;BME280;62749;51.982;5.916;2023-10-13T02:15:13;100734.00;;;17.40;100.00
74329;BME280;62749;51.982;5.916;2023-10-13T02:17:47;100708.38;;;17.24;100.00
74329;BME280;62749;51.982;5.916;2023-10-13T02:20:18;100728.66;;;17.40;100.00
74329;BME280;62749;51.982;5.916;2023-10-13T02:22:45;100731.94;;;17.43;100.00
74329;BME280;62749;51.982;5.916;2023-10-13T02:25:20;100735.25;;;17.47;100.00
74329;BME280;62749;51.982;5.916;2023-10-13T02:28:04;100734.09;;;17.38;100.00
74329;BME280;62749;51.982;5.916;2023-10-13T02:30:37;100727.28;;;17.34;100.00
74329;BME280;62749;51.982;5.916;2023-10-13T02:33:04;100711.25;;;17.34;100.00
74329;BME280;62749;51.982;5.916;2023-10-13T02:35:38;100719.38;;;17.32;100.00
74329;BME280;62749;51.982;5.916;2023-10-13T02:38:08;100708.47;;;17.36;100.00
74329;BME280;62749;51.982;5.916;2023-10-13T02:40:42;100704.09;;;17.35;100.00
74329;BME280;62749;51.982;5.916;2023-10-13T02:43:09;100689.03;;;17.33;100.00
74329;BME280;62749;51.982;5.916;2023-10-13T02:45:40;100686.28;;;17.35;100.00
74329;BME280;62749;51.982;5.916;2023-10-13T02:48:10;100686.28;;;17.35;100.00
74329;BME280;62749;51.982;5.916;2023-10-13T02:50:43;100676.56;;;17.34;100.00
74329;BME280;62749;51.982;5.916;2023-10-13T02:53:12;100679.22;;;17.34;100.00
74329;BME280;62749;51.982;5.916;2023-10-13T02:55:55;100680.69;;;17.38;100.00
74329;BME280;62749;51.982;5.916;2023-10-13T02:58:23;100672.25;;;17.31;100.00
74329;BME280;62749;51.982;5.916;2023-10-13T03:01:08;100666.63;;;17.36;100.00
74329;BME280;62749;51.982;5.916;2023-10-13T03:03:44;100650.28;;;17.28;100.00
74329;BME280;62749;51.982;5.916;2023-10-13T03:06:17;100664.16;;;17.33;100.00
74329;BME280;62749;51.982;5.916;2023-10-13T03:08:48;100661.72;;;17.30;100.00
74329;BME280;62749;51.982;5.916;2023-10-13T03:11:20;100658.09;;;17.31;100.00
74329;BME280;62749;51.982;5.916;2023-10-13T03:13:49;100658.50;;;17.25;100.00
74329;BME280;62749;51.982;5.916;2023-10-13T03:16:19;100653.91;;;17.27;100.00
74329;BME280;62749;51.982;5.916;2023-10-13T03:18:47;100647.75;;;17.26;100.00
74329;BME280;62749;51.982;5.916;2023-10-13T03:21:26;100632.38;;;17.17;100.00
74329;BME280;62749;51.982;5.916;2023-10-13T03:23:56;100617.09;;;17.19;100.00
74329;BME280;62749;51.982;5.916;2023-10-13T03:26:33;100617.75;;;17.23;100.00
74329;BME280;62749;51.982;5.916;2023-10-13T03:29:10;100619.22;;;17.27;100.00
74329;BME280;62749;51.982;5.916;2023-10-13T03:31:48;100610.38;;;17.26;100.00
74329;BME280;62749;51.982;5.916;2023-10-13T03:34:32;100596.81;;;17.29;100.00
74329;BME280;62749;51.982;5.916;2023-10-13T03:37:07;100561.13;;;17.06;100.00
74329;BME280;62749;51.982;5.916;2023-10-13T03:39:39;100595.66;;;17.21;100.00
74329;BME280;62749;51.982;5.916;2023-10-13T03:42:14;100597.38;;;17.22;100.00
74329;BME280;62749;51.982;5.916;2023-10-13T03:44:48;100589.56;;;17.18;100.00
74329;BME280;62749;51.982;5.916;2023-10-13T03:47:21;100593.13;;;17.30;100.00
74329;BME280;62749;51.982;5.916;2023-10-13T03:49:58;100573.34;;;17.22;100.00
74329;BME280;62749;51.982;5.916;2023-10-13T03:52:40;100572.13;;;17.26;100.00
74329;BME280;62749;51.982;5.916;2023-10-13T03:55:11;100564.13;;;17.26;100.00
74329;BME280;62749;51.982;5.916;2023-10-13T03:57:46;100553.84;;;17.32;100.00
74329;BME280;62749;51.982;5.916;2023-10-13T04:00:17;100567.44;;;17.29;100.00
74329;BME280;62749;51.982;5.916;2023-10-13T04:02:51;100553.91;;;17.20;100.00
74329;BME280;62749;51.982;5.916;2023-10-13T04:05:34;100555.50;;;17.22;100.00
74329;BME280;62749;51.982;5.916;2023-10-13T04:08:07;100547.84;;;17.17;100.00
74329;BME280;62749;51.982;5.916;2023-10-13T04:10:53;100539.22;;;17.14;100.00
74329;BME280;62749;51.982;5.916;2023-10-13T04:13:37;100528.53;;;17.14;100.00
74329;BME280;62749;51.982;5.916;2023-10-13T04:16:31;100525.88;;;17.14;100.00
74329;BME280;62749;51.982;5.916;2023-10-13T04:19:18;100510.91;;;17.11;100.00
74329;BME280;62749;51.982;5.916;2023-10-13T04:21:55;100507.84;;;17.05;100.00
74329;BME280;62749;51.982;5.916;2023-10-13T04:24:27;100496.84;;;17.09;100.00
74329;BME280;62749;51.982;5.916;2023-10-13T04:27:25;100495.97;;;17.09;100.00
74329;BME280;62749;51.982;5.916;2023-10-13T04:30:23;100484.00;;;17.14;100.00
74329;BME280;62749;51.982;5.916;2023-10-13T04:33:04;100474.41;;;17.12;100.00
74329;BME280;62749;51.982;5.916;2023-10-13T04:36:02;100465.78;;;17.08;100.00
74329;BME280;62749;51.982;5.916;2023-10-13T04:38:40;100453.41;;;17.07;100.00
74329;BME280;62749;51.982;5.916;2023-10-13T04:41:24;100437.41;;;17.07;100.00
74329;BME280;62749;51.982;5.916;2023-10-13T04:43:51;100434.81;;;17.06;100.00
74329;BME280;62749;51.982;5.916;2023-10-13T04:46:33;100428.88;;;17.02;100.00
74329;BME280;62749;51.982;5.916;2023-10-13T04:49:20;100423.19;;;17.07;100.00
74329;BME280;62749;51.982;5.916;2023-10-13T04:52:04;100422.53;;;17.16;100.00
74329;BME280;62749;51.982;5.916;2023-10-13T04:54:41;100413.88;;;17.12;100.00
74329;BME280;62749;51.982;5.916;2023-10-13T04:57:18;100405.75;;;17.14;100.00
74329;BME280;62749;51.982;5.916;2023-10-13T04:59:51;100410.63;;;17.20;100.00
74329;BME280;62749;51.982;5.916;2023-10-13T05:02:36;100407.28;;;17.29;100.00
74329;BME280;62749;51.982;5.916;2023-10-13T05:05:18;100395.47;;;17.21;100.00
74329;BME280;62749;51.982;5.916;2023-10-13T05:08:00;100402.91;;;17.28;100.00
74329;BME280;62749;51.982;5.916;2023-10-13T05:10:42;100406.53;;;17.27;100.00
74329;BME280;62749;51.982;5.916;2023-10-13T05:13:23;100404.72;;;17.39;100.00
74329;BME280;62749;51.982;5.916;2023-10-13T05:16:05;100399.91;;;17.44;100.00
74329;BME280;62749;51.982;5.916;2023-10-13T05:18:50;100411.31;;;17.46;100.00
74329;BME280;62749;51.982;5.916;2023-10-13T05:21:32;100411.06;;;17.49;100.00
74329;BME280;62749;51.982;5.916;2023-10-13T05:24:14;100400.03;;;17.54;100.00
74329;BME280;62749;51.982;5.916;2023-10-13T05:26:56;100389.97;;;17.58;100.00
74329;BME280;62749;51.982;5.916;2023-10-13T05:29:39;100386.41;;;17.57;100.00
74329;BME280;62749;51.982;5.916;2023-10-13T05:32:20;100398.22;;;17.66;100.00
74329;BME280;62749;51.982;5.916;2023-10-13T05:35:05;100387.66;;;17.64;100.00
74329;BME280;62749;51.982;5.916;2023-10-13T05:37:47;100391.44;;;17.73;100.00
74329;BME280;62749;51.982;5.916;2023-10-13T05:40:29;100382.31;;;17.76;100.00
74329;BME280;62749;51.982;5.916;2023-10-13T05:43:11;100393.13;;;17.74;100.00
74329;BME280;62749;51.982;5.916;2023-10-13T05:45:53;100388.75;;;17.73;100.00
74329;BME280;62749;51.982;5.916;2023-10-13T05:48:34;100396.78;;;17.73;100.00
74329;BME280;62749;51.982;5.916;2023-10-13T05:51:33;100376.97;;;17.76;100.00
74329;BME280;62749;51.982;5.916;2023-10-13T05:54:11;100373.81;;;17.82;100.00
74329;BME280;62749;51.982;5.916;2023-10-13T05:56:52;100374.91;;;17.79;100.00
74329;BME280;62749;51.982;5.916;2023-10-13T05:59:36;100379.03;;;17.84;100.00
74329;BME280;62749;51.982;5.916;2023-10-13T06:02:19;100380.50;;;17.88;100.00
74329;BME280;62749;51.982;5.916;2023-10-13T06:05:01;100377.84;;;17.88;100.00
74329;BME280;62749;51.982;5.916;2023-10-13T06:07:46;100371.41;;;17.90;100.00
74329;BME280;62749;51.982;5.916;2023-10-13T06:10:27;100376.50;;;17.93;100.00
74329;BME280;62749;51.982;5.916;2023-10-13T06:13:09;100379.28;;;17.92;100.00
74329;BME280;62749;51.982;5.916;2023-10-13T06:15:51;100378.31;;;17.93;100.00
74329;BME280;62749;51.982;5.916;2023-10-13T06:18:44;100367.63;;;17.93;100.00
74329;BME280;62749;51.982;5.916;2023-10-13T06:21:26;100378.31;;;17.93;100.00
74329;BME280;62749;51.982;5.916;2023-10-13T06:24:10;100375.50;;;17.94;100.00
74329;BME280;62749;51.982;5.916;2023-10-13T06:26:52;100371.84;;;17.95;100.00
74329;BME280;62749;51.982;5.916;2023-10-13T06:29:34;100369.19;;;17.95;100.00
74329;BME280;62749;51.982;5.916;2023-10-13T06:32:03;100356.59;;;17.98;100.00
74329;BME280;62749;51.982;5.916;2023-10-13T06:34:37;100363.53;;;18.00;100.00
74329;BME280;62749;51.982;5.916;2023-10-13T06:37:11;100346.63;;;17.88;100.00
74329;BME280;62749;51.982;5.916;2023-10-13T06:39:56;100355.25;;;18.03;100.00
74329;BME280;62749;51.982;5.916;2023-10-13T06:42:29;100352.09;;;17.98;100.00
74329;BME280;62749;51.982;5.916;2023-10-13T06:45:01;100358.53;;;18.07;100.00
74329;BME280;62749;51.982;5.916;2023-10-13T06:47:35;100348.09;;;18.04;100.00
74329;BME280;62749;51.982;5.916;2023-10-13T06:50:09;100358.41;;;18.08;100.00
74329;BME280;62749;51.982;5.916;2023-10-13T06:52:42;100355.94;;;18.17;100.00
74329;BME280;62749;51.982;5.916;2023-10-13T06:55:14;100342.25;;;18.10;100.00
74329;BME280;62749;51.982;5.916;2023-10-13T06:57:50;100349.53;;;18.08;100.00
74329;BME280;62749;51.982;5.916;2023-10-13T07:00:19;100337.88;;;18.09;100.00
74329;BME280;62749;51.982;5.916;2023-10-13T07:02:56;100332.28;;;18.12;100.00
74329;BME280;62749;51.982;5.916;2023-10-13T07:05:36;100318.53;;;18.17;100.00
74329;BME280;62749;51.982;5.916;2023-10-13T07:08:08;100330.19;;;18.16;100.00
74329;BME280;62749;51.982;5.916;2023-10-13T07:10:49;100320.22;;;18.18;100.00
74329;BME280;62749;51.982;5.916;2023-10-13T07:13:28;100306.06;;;18.06;100.00
74329;BME280;62749;51.982;5.916;2023-10-13T07:16:00;100336.88;;;18.21;100.00
74329;BME280;62749;51.982;5.916;2023-10-13T07:18:32;100333.50;;;18.19;100.00
74329;BME280;62749;51.982;5.916;2023-10-13T07:21:03;100327.16;;;18.20;100.00
74329;BME280;62749;51.982;5.916;2023-10-13T07:23:36;100329.94;;;18.19;100.00
74329;BME280;62749;51.982;5.916;2023-10-13T07:26:08;100319.25;;;18.19;100.00
74329;BME280;62749;51.982;5.916;2023-10-13T07:28:40;100315.75;;;18.18;100.00
74329;BME280;62749;51.982;5.916;2023-10-13T07:31:12;100310.41;;;18.18;100.00
74329;BME280;62749;51.982;5.916;2023-10-13T07:33:42;100308.94;;;18.14;100.00
74329;BME280;62749;51.982;5.916;2023-10-13T07:36:11;100295.06;;;18.20;100.00
74329;BME280;62749;51.982;5.916;2023-10-13T07:38:54;100301.28;;;18.21;100.00
74329;BME280;62749;51.982;5.916;2023-10-13T07:41:51;100298.47;;;18.22;100.00
74329;BME280;62749;51.982;5.916;2023-10-13T07:44:30;100288.88;;;18.20;100.00
74329;BME280;62749;51.982;5.916;2023-10-13T07:47:01;100292.16;;;18.23;100.00
74329;BME280;62749;51.982;5.916;2023-10-13T07:49:37;100283.50;;;18.31;100.00
74329;BME280;62749;51.982;5.916;2023-10-13T07:52:08;100271.16;;;18.19;100.00
74329;BME280;62749;51.982;5.916;2023-10-13T07:54:51;100268.69;;;18.27;100.00
74329;BME280;62749;51.982;5.916;2023-10-13T07:57:29;100263.13;;;18.19;100.00
74329;BME280;62749;51.982;5.916;2023-10-13T07:59:58;100262.88;;;18.22;100.00
74329;BME280;62749;51.982;5.916;2023-10-13T08:02:37;100271.34;;;18.27;100.00
74329;BME280;62749;51.982;5.916;2023-10-13T08:05:19;100260.44;;;18.19;100.00
74329;BME280;62749;51.982;5.916;2023-10-13T08:07:56;100266.03;;;18.16;100.00
74329;BME280;62749;51.982;5.916;2023-10-13T08:10:25;100251.22;;;18.23;100.00
74329;BME280;62749;51.982;5.916;2023-10-13T08:12:59;100262.09;;;18.31;100.00
74329;BME280;62749;51.982;5.916;2023-10-13T08:15:28;100244.38;;;18.30;100.00
74329;BME280;62749;51.982;5.916;2023-10-13T08:18:01;100247.75;;;18.32;100.00
74329;BME280;62749;51.982;5.916;2023-10-13T08:20:43;100258.53;;;18.42;100.00
74329;BME280;62749;51.982;5.916;2023-10-13T08:23:13;100256.22;;;18.49;100.00
74329;BME280;62749;51.982;5.916;2023-10-13T08:25:46;100277.69;;;18.59;100.00
74329;BME280;62749;51.982;5.916;2023-10-13T08:28:36;100250.97;;;18.68;100.00
74329;BME280;62749;51.982;5.916;2023-10-13T08:31:20;100238.88;;;18.64;100.00
74329;BME280;62749;51.982;5.916;2023-10-13T08:33:48;100265.66;;;18.74;100.00
74329;BME280;62749;51.982;5.916;2023-10-13T08:36:24;100256.56;;;18.77;100.00
74329;BME280;62749;51.982;5.916;2023-10-13T08:38:57;100247.25;;;18.81;100.00
74329;BME280;62749;51.982;5.916;2023-10-13T08:41:46;100251.19;;;18.77;100.00
74329;BME280;62749;51.982;5.916;2023-10-13T08:44:30;100253.34;;;18.83;100.00
74329;BME280;62749;51.982;5.916;2023-10-13T08:47:02;100253.66;;;18.90;100.00
74329;BME280;62749;51.982;5.916;2023-10-13T08:49:44;100239.06;;;18.94;100.00
74329;BME280;62749;51.982;5.916;2023-10-13T08:52:21;100229.97;;;19.06;100.00
74329;BME280;62749;51.982;5.916;2023-10-13T08:55:15;100227.72;;;19.11;100.00
74329;BME280;62749;51.982;5.916;2023-10-13T08:57:58;100221.56;;;19.11;100.00
74329;BME280;62749;51.982;5.916;2023-10-13T09:00:46;100221.13;;;19.15;100.00
74329;BME280;62749;51.982;5.916;2023-10-13T09:03:23;100208.47;;;19.17;100.00
74329;BME280;62749;51.982;5.916;2023-10-13T09:06:05;100206.69;;;19.28;100.00
74329;BME280;62749;51.982;5.916;2023-10-13T09:08:33;100214.59;;;19.29;100.00
74329;BME280;62749;51.982;5.916;2023-10-13T09:11:11;100218.72;;;19.43;100.00
74329;BME280;62749;51.982;5.916;2023-10-13T09:13:39;100203.22;;;19.47;100.00
74329;BME280;62749;51.982;5.916;2023-10-13T09:16:15;100215.22;;;19.53;100.00
74329;BME280;62749;51.982;5.916;2023-10-13T09:19:05;100213.66;;;19.50;100.00
74329;BME280;62749;51.982;5.916;2023-10-13T09:21:38;100194.94;;;19.60;100.00
74329;BME280;62749;51.982;5.916;2023-10-13T09:24:15;100199.19;;;19.72;98.23
74329;BME280;62749;51.982;5.916;2023-10-13T09:27:00;100193.16;;;19.80;97.53
74329;BME280;62749;51.982;5.916;2023-10-13T09:29:31;100195.81;;;19.80;98.21
74329;BME280;62749;51.982;5.916;2023-10-13T09:32:07;100185.22;;;19.78;96.77
74329;BME280;62749;51.982;5.916;2023-10-13T09:34:38;100179.72;;;19.70;99.87
74329;BME280;62749;51.982;5.916;2023-10-13T09:37:07;100168.56;;;19.65;97.32
74329;BME280;62749;51.982;5.916;2023-10-13T09:39:38;100180.16;;;19.85;96.59
74329;BME280;62749;51.982;5.916;2023-10-13T09:42:11;100172.97;;;19.86;95.83
74329;BME280;62749;51.982;5.916;2023-10-13T09:44:42;100178.47;;;19.84;96.23
74329;BME280;62749;51.982;5.916;2023-10-13T09:47:21;100169.31;;;19.77;97.54
74329;BME280;62749;51.982;5.916;2023-10-13T09:50:00;100173.78;;;19.76;96.17
74329;BME280;62749;51.982;5.916;2023-10-13T09:52:32;100163.38;;;19.83;95.62
74329;BME280;62749;51.982;5.916;2023-10-13T09:55:13;100167.06;;;19.92;93.65
74329;BME280;62749;51.982;5.916;2023-10-13T09:57:51;100164.94;;;19.96;94.45
74329;BME280;62749;51.982;5.916;2023-10-13T10:00:29;100171.31;;;19.95;92.32
74329;BME280;62749;51.982;5.916;2023-10-13T10:03:18;100171.88;;;20.08;90.86
74329;BME280;62749;51.982;5.916;2023-10-13T10:06:06;100173.56;;;20.09;89.49
74329;BME280;62749;51.982;5.916;2023-10-13T10:08:35;100169.34;;;20.16;90.74
74329;BME280;62749;51.982;5.916;2023-10-13T10:11:30;100162.28;;;20.15;91.15
74329;BME280;62749;51.982;5.916;2023-10-13T10:14:08;100144.50;;;20.24;88.43
74329;BME280;62749;51.982;5.916;2023-10-13T10:16:51;100148.28;;;20.21;90.63
74329;BME280;62749;51.982;5.916;2023-10-13T10:19:23;100161.69;;;20.21;88.79
74329;BME280;62749;51.982;5.916;2023-10-13T10:22:01;100158.03;;;20.22;88.02
74329;BME280;62749;51.982;5.916;2023-10-13T10:24:40;100148.72;;;20.17;88.53
74329;BME280;62749;51.982;5.916;2023-10-13T10:27:10;100133.50;;;20.17;89.00
74329;BME280;62749;51.982;5.916;2023-10-13T10:29:52;100131.81;;;20.16;89.17
74329;BME280;62749;51.982;5.916;2023-10-13T10:32:32;100136.31;;;20.26;87.69
74329;BME280;62749;51.982;5.916;2023-10-13T10:35:09;100131.50;;;20.29;86.44
74329;BME280;62749;51.982;5.916;2023-10-13T10:37:47;100138.00;;;20.27;87.22
74329;BME280;62749;51.982;5.916;2023-10-13T10:40:17;100121.47;;;20.21;86.35
74329;BME280;62749;51.982;5.916;2023-10-13T10:43:02;100127.56;;;20.23;87.78
74329;BME280;62749;51.982;5.916;2023-10-13T10:45:36;100125.69;;;20.34;85.56
74329;BME280;62749;51.982;5.916;2023-10-13T10:48:12;100113.97;;;20.45;85.33
74329;BME280;62749;51.982;5.916;2023-10-13T10:50:56;100104.09;;;20.45;85.74
74329;BME280;62749;51.982;5.916;2023-10-13T10:53:34;100112.69;;;20.39;87.28
74329;BME280;62749;51.982;5.916;2023-10-13T10:56:11;100092.22;;;20.48;83.46
74329;BME280;62749;51.982;5.916;2023-10-13T10:58:58;100092.06;;;20.49;84.91
74329;BME280;62749;51.982;5.916;2023-10-13T11:01:29;100089.78;;;20.54;85.81
74329;BME280;62749;51.982;5.916;2023-10-13T11:04:06;100085.38;;;20.63;84.29
74329;BME280;62749;51.982;5.916;2023-10-13T11:06:48;100082.72;;;20.53;86.25
74329;BME280;62749;51.982;5.916;2023-10-13T11:09:24;100094.13;;;20.75;83.88
74329;BME280;62749;51.982;5.916;2023-10-13T11:12:09;100093.91;;;20.87;82.30
74329;BME280;62749;51.982;5.916;2023-10-13T11:15:00;100079.94;;;20.83;83.02
74329;BME280;62749;51.982;5.916;2023-10-13T11:17:31;100080.22;;;20.90;80.87
74329;BME280;62749;51.982;5.916;2023-10-13T11:20:18;100076.81;;;20.88;81.27
74329;BME280;62749;51.982;5.916;2023-10-13T11:22:54;100073.44;;;20.85;81.47
74329;BME280;62749;51.982;5.916;2023-10-13T11:25:26;100063.56;;;20.86;80.90
74329;BME280;62749;51.982;5.916;2023-10-13T11:28:10;100073.00;;;20.90;80.02
74329;BME280;62749;51.982;5.916;2023-10-13T11:30:44;100070.91;;;20.84;77.42
74329;BME280;62749;51.982;5.916;2023-10-13T11:33:17;100074.50;;;21.03;76.08
74329;BME280;62749;51.982;5.916;2023-10-13T11:35:50;100058.63;;;21.09;77.80
74329;BME280;62749;51.982;5.916;2023-10-13T11:38:27;100051.34;;;21.20;73.34
74329;BME280;62749;51.982;5.916;2023-10-13T11:41:07;100040.75;;;21.18;72.19
74329;BME280;62749;51.982;5.916;2023-10-13T11:43:46;100041.38;;;21.30;71.35
74329;BME280;62749;51.982;5.916;2023-10-13T11:46:20;100039.47;;;21.40;70.67
74329;BME280;62749;51.982;5.916;2023-10-13T11:49:02;100042.53;;;21.45;69.59
74329;BME280;62749;51.982;5.916;2023-10-13T11:51:45;100042.53;;;21.45;72.27
74329;BME280;62749;51.982;5.916;2023-10-13T11:54:18;100031.63;;;21.47;71.42
74329;BME280;62749;51.982;5.916;2023-10-13T11:56:49;100020.28;;;21.53;70.67
74329;BME280;62749;51.982;5.916;2023-10-13T11:59:18;100008.63;;;21.44;72.19
74329;BME280;62749;51.982;5.916;2023-10-13T12:01:53;100003.78;;;21.48;71.88
74329;BME280;62749;51.982;5.916;2023-10-13T12:04:38;100015.44;;;21.39;72.70
74329;BME280;62749;51.982;5.916;2023-10-13T12:07:15;100020.81;;;21.39;75.74
74329;BME280;62749;51.982;5.916;2023-10-13T12:09:51;100013.28;;;21.42;74.12
74329;BME280;62749;51.982;5.916;2023-10-13T12:12:40;99996.78;;;21.55;72.35
74329;BME280;62749;51.982;5.916;2023-10-13T12:15:09;100004.16;;;21.71;70.49
74329;BME280;62749;51.982;5.916;2023-10-13T12:17:51;99997.22;;;21.87;69.33
74329;BME280;62749;51.982;5.916;2023-10-13T12:20:26;99999.22;;;21.85;70.06
74329;BME280;62749;51.982;5.916;2023-10-13T12:23:02;99997.53;;;21.84;69.85
74329;BME280;62749;51.982;5.916;2023-10-13T12:25:48;100001.22;;;21.83;70.90
74329;BME280;62749;51.982;5.916;2023-10-13T12:28:26;100012.66;;;21.85;70.98
74329;BME280;62749;51.982;5.916;2023-10-13T12:31:04;100007.28;;;21.85;71.24
74329;BME280;62749;51.982;5.916;2023-10-13T12:33:38;100007.63;;;21.90;70.36
74329;BME280;62749;51.982;5.916;2023-10-13T12:36:07;99999.09;;;21.95;70.64
74329;BME280;62749;51.982;5.916;2023-10-13T12:38:41;99998.09;;;21.96;69.95
74329;BME280;62749;51.982;5.916;2023-10-13T12:41:26;99999.84;;;22.05;69.79
74329;BME280;62749;51.982;5.916;2023-10-13T12:44:22;99999.09;;;21.95;70.06
74329;BME280;62749;51.982;5.916;2023-10-13T12:47:04;99998.16;;;22.04;69.10
74329;BME280;62749;51.982;5.916;2023-10-13T12:49:46;99989.94;;;22.05;70.01
74329;BME280;62749;51.982;5.916;2023-10-13T12:52:24;99980.81;;;21.98;69.80
74329;BME280;62749;51.982;5.916;2023-10-13T12:54:58;99994.88;;;21.92;72.16
74329;BME280;62749;51.982;5.916;2023-10-13T12:57:35;99987.50;;;21.94;70.12
74329;BME280;62749;51.982;5.916;2023-10-13T13:02:47;99971.69;;;21.91;69.67
74329;BME280;62749;51.982;5.916;2023-10-13T13:05:22;99980.81;;;21.98;69.09
74329;BME280;62749;51.982;5.916;2023-10-13T13:07:55;99985.34;;;21.98;70.35
74329;BME280;62749;51.982;5.916;2023-10-13T13:10:24;99990.94;;;22.04;69.20
74329;BME280;62749;51.982;5.916;2023-10-13T13:13:05;99980.03;;;22.06;68.89
74329;BME280;62749;51.982;5.916;2023-10-13T13:15:35;99973.09;;;22.03;69.05
74329;BME280;62749;51.982;5.916;2023-10-13T13:18:05;99979.88;;;22.07;69.11
74329;BME280;62749;51.982;5.916;2023-10-13T13:20:40;99987.75;;;22.09;69.43
74329;BME280;62749;51.982;5.916;2023-10-13T13:23:19;99985.06;;;22.09;69.36
74329;BME280;62749;51.982;5.916;2023-10-13T13:25:52;99989.94;;;22.05;69.50
74329;BME280;62749;51.982;5.916;2023-10-13T13:28:26;99972.97;;;22.05;69.39
74329;BME280;62749;51.982;5.916;2023-10-13T13:30:55;99984.25;;;22.09;69.42
74329;BME280;62749;51.982;5.916;2023-10-13T13:33:24;99970.81;;;22.09;70.26